South Point, Hawaii
Current Conditions -  °F | °C
As of 6:56 AM on Saturday 22 Nov 2014 (Local Time) from PHSF Reporting Station
Clear Clear  
Wind Chill: 38°   Ceiling: Unl
Heat Index: 41°   Visibility: 10mi
Dew Point: 33°   Wind: 5mph
Humidity: 74%   Direction: 160°SSE
Pressure: 30.39"   Gusts: NA
Location:  19°N, 155.67°W
Report Text: PHSF 221656Z AUTO 16004KT 10SM CLR 05/01 A3039 RMK AO2 SLP204 T00480005 $
Loading
Personal Weather Stations






























Interactive Weather Map New forecast layout! Learn more

10-Day Weather Forecast

Advertisements
Track Severe Weather on mobile